sensor_id;sensor_type;location;lat;lon;timestamp;pressure;altitude;pressure_sealevel;temperature;humidity
37710;BME280;60223;34.854;-92.408;2023-01-15T00:00:29;101319.37;;;16.32;24.16
37710;BME280;60223;34.854;-92.408;2023-01-15T00:02:54;101315.75;;;16.35;24.17
37710;BME280;60223;34.854;-92.408;2023-01-15T00:05:20;101311.46;;;16.67;24.10
37710;BME280;60223;34.854;-92.408;2023-01-15T00:07:44;101305.64;;;16.56;24.21
37710;BME280;60223;34.854;-92.408;2023-01-15T00:10:12;101306.41;;;16.27;24.24
37710;BME280;60223;34.854;-92.408;2023-01-15T00:12:36;101309.77;;;15.96;24.31
37710;BME280;60223;34.854;-92.408;2023-01-15T00:15:02;101311.58;;;16.47;24.12
37710;BME280;60223;34.854;-92.408;2023-01-15T00:17:24;101309.80;;;16.10;24.41
37710;BME280;60223;34.854;-92.408;2023-01-15T00:19:53;101303.67;;;16.27;24.32
37710;BME280;60223;34.854;-92.408;2023-01-15T00:22:17;101300.17;;;16.44;24.18
37710;BME280;60223;34.854;-92.408;2023-01-15T00:24:44;101300.82;;;16.47;24.18
37710;BME280;60223;34.854;-92.408;2023-01-15T00:27:09;101303.05;;;16.33;24.29
37710;BME280;60223;34.854;-92.408;2023-01-15T00:29:36;101300.90;;;16.31;24.29
37710;BME280;60223;34.854;-92.408;2023-01-15T00:32:04;101303.40;;;16.52;24.14
37710;BME280;60223;34.854;-92.408;2023-01-15T00:34:28;101299.52;;;16.69;24.16
37710;BME280;60223;34.854;-92.408;2023-01-15T00:36:51;101296.47;;;16.63;24.26
37710;BME280;60223;34.854;-92.408;2023-01-15T00:39:19;101292.83;;;16.20;24.45
37710;BME280;60223;34.854;-92.408;2023-01-15T00:41:43;101293.38;;;16.14;24.47
37710;BME280;60223;34.854;-92.408;2023-01-15T00:44:08;101293.48;;;15.97;24.44
37710;BME280;60223;34.854;-92.408;2023-01-15T00:46:31;101289.21;;;16.26;24.42
37710;BME280;60223;34.854;-92.408;2023-01-15T00:49:00;101287.21;;;16.14;24.52
37710;BME280;60223;34.854;-92.408;2023-01-15T00:51:24;101289.99;;;16.35;24.33
37710;BME280;60223;34.854;-92.408;2023-01-15T00:53:47;101290.40;;;16.12;24.53
37710;BME280;60223;34.854;-92.408;2023-01-15T00:56:14;101292.59;;;16.54;24.60
37710;BME280;60223;34.854;-92.408;2023-01-15T00:58:39;101293.72;;;16.17;24.53
37710;BME280;60223;34.854;-92.408;2023-01-15T01:01:04;101298.45;;;16.32;24.38
37710;BME280;60223;34.854;-92.408;2023-01-15T01:03:29;101299.43;;;16.42;24.50
37710;BME280;60223;34.854;-92.408;2023-01-15T01:05:58;101297.75;;;16.07;24.62
37710;BME280;60223;34.854;-92.408;2023-01-15T01:08:18;101299.06;;;16.45;24.30
37710;BME280;60223;34.854;-92.408;2023-01-15T01:10:44;101297.75;;;16.07;24.64
37710;BME280;60223;34.854;-92.408;2023-01-15T01:13:10;101292.57;;;16.15;24.61
37710;BME280;60223;34.854;-92.408;2023-01-15T01:15:34;101285.40;;;16.02;24.69
37710;BME280;60223;34.854;-92.408;2023-01-15T01:17:59;101284.06;;;16.39;24.40
37710;BME280;60223;34.854;-92.408;2023-01-15T01:20:23;101280.92;;;16.51;24.48
37710;BME280;60223;34.854;-92.408;2023-01-15T01:22:47;101275.33;;;16.10;24.67
37710;BME280;60223;34.854;-92.408;2023-01-15T01:25:14;101272.43;;;16.02;24.71
37710;BME280;60223;34.854;-92.408;2023-01-15T01:27:39;101273.89;;;16.08;24.64
37710;BME280;60223;34.854;-92.408;2023-01-15T01:30:05;101269.24;;;16.18;24.81
37710;BME280;60223;34.854;-92.408;2023-01-15T01:32:29;101265.45;;;16.08;24.70
37710;BME280;60223;34.854;-92.408;2023-01-15T01:34:54;101263.15;;;16.04;24.73
37710;BME280;60223;34.854;-92.408;2023-01-15T01:37:18;101258.86;;;16.13;24.66
37710;BME280;60223;34.854;-92.408;2023-01-15T01:39:46;101255.16;;;16.17;24.64
37710;BME280;60223;34.854;-92.408;2023-01-15T01:42:14;101257.78;;;16.08;24.69
37710;BME280;60223;34.854;-92.408;2023-01-15T01:47:00;101262.53;;;15.87;24.66
37710;BME280;60223;34.854;-92.408;2023-01-15T01:49:25;101260.71;;;16.09;24.70
37710;BME280;60223;34.854;-92.408;2023-01-15T01:51:51;101255.31;;;16.10;24.74
37710;BME280;60223;34.854;-92.408;2023-01-15T01:54:14;101253.62;;;16.22;24.60
37710;BME280;60223;34.854;-92.408;2023-01-15T01:56:40;101251.70;;;15.90;24.87
37710;BME280;60223;34.854;-92.408;2023-01-15T01:59:07;101254.87;;;16.32;24.70
37710;BME280;60223;34.854;-92.408;2023-01-15T02:01:29;101254.73;;;16.01;24.83
37710;BME280;60223;34.854;-92.408;2023-01-15T02:03:55;101254.81;;;16.01;24.78
37710;BME280;60223;34.854;-92.408;2023-01-15T02:06:21;101258.03;;;16.29;24.76
37710;BME280;60223;34.854;-92.408;2023-01-15T02:08:46;101257.62;;;16.05;24.82
37710;BME280;60223;34.854;-92.408;2023-01-15T02:11:15;101258.65;;;15.90;24.89
37710;BME280;60223;34.854;-92.408;2023-01-15T02:13:37;101253.09;;;15.95;24.85
37710;BME280;60223;34.854;-92.408;2023-01-15T02:16:05;101253.70;;;16.13;24.70
37710;BME280;60223;34.854;-92.408;2023-01-15T02:18:31;101259.06;;;15.70;24.89
37710;BME280;60223;34.854;-92.408;2023-01-15T02:20:54;101260.82;;;16.04;24.83
37710;BME280;60223;34.854;-92.408;2023-01-15T02:23:28;101265.41;;;16.21;24.88
37710;BME280;60223;34.854;-92.408;2023-01-15T02:25:53;101265.19;;;16.12;24.96
37710;BME280;60223;34.854;-92.408;2023-01-15T02:49:55;101264.16;;;16.69;24.50
37710;BME280;60223;34.854;-92.408;2023-01-15T02:52:21;101255.62;;;16.45;24.51
37710;BME280;60223;34.854;-92.408;2023-01-15T02:54:42;101261.90;;;16.47;24.45
37710;BME280;60223;34.854;-92.408;2023-01-15T02:57:08;101259.45;;;16.59;24.35
37710;BME280;60223;34.854;-92.408;2023-01-15T02:59:33;101263.80;;;16.18;24.67
37710;BME280;60223;34.854;-92.408;2023-01-15T03:01:58;101260.38;;;16.45;24.48
37710;BME280;60223;34.854;-92.408;2023-01-15T03:04:27;101259.16;;;16.16;24.69
37710;BME280;60223;34.854;-92.408;2023-01-15T03:06:50;101255.75;;;16.72;24.42
37710;BME280;60223;34.854;-92.408;2023-01-15T03:09:12;101260.96;;;16.43;24.44
37710;BME280;60223;34.854;-92.408;2023-01-15T03:11:42;101258.26;;;16.61;24.31
37710;BME280;60223;34.854;-92.408;2023-01-15T03:14:06;101248.95;;;16.35;24.53
37710;BME280;60223;34.854;-92.408;2023-01-15T03:16:28;101243.66;;;16.54;24.38
37710;BME280;60223;34.854;-92.408;2023-01-15T03:18:58;101248.82;;;16.72;24.19
37710;BME280;60223;34.854;-92.408;2023-01-15T03:21:20;101250.07;;;16.71;24.38
37710;BME280;60223;34.854;-92.408;2023-01-15T03:23:46;101248.95;;;16.44;24.40
37710;BME280;60223;34.854;-92.408;2023-01-15T03:26:08;101249.84;;;16.77;24.32
37710;BME280;60223;34.854;-92.408;2023-01-15T03:28:35;101250.13;;;16.67;24.39
37710;BME280;60223;34.854;-92.408;2023-01-15T03:30:57;101246.26;;;17.01;24.10
37710;BME280;60223;34.854;-92.408;2023-01-15T03:33:23;101248.12;;;16.86;24.23
37710;BME280;60223;34.854;-92.408;2023-01-15T03:35:50;101252.59;;;16.43;24.40
37710;BME280;60223;34.854;-92.408;2023-01-15T03:38:13;101246.42;;;16.24;24.34
37710;BME280;60223;34.854;-92.408;2023-01-15T03:40:41;101243.99;;;16.40;24.43
37710;BME280;60223;34.854;-92.408;2023-01-15T03:43:04;101244.29;;;16.90;24.40
37710;BME280;60223;34.854;-92.408;2023-01-15T03:45:31;101246.63;;;16.42;24.37
37710;BME280;60223;34.854;-92.408;2023-01-15T03:47:58;101247.68;;;16.47;24.35
37710;BME280;60223;34.854;-92.408;2023-01-15T03:50:24;101246.06;;;16.68;24.33
37710;BME280;60223;34.854;-92.408;2023-01-15T03:52:49;101249.44;;;16.44;24.55
37710;BME280;60223;34.854;-92.408;2023-01-15T03:55:14;101246.04;;;16.54;24.47
37710;BME280;60223;34.854;-92.408;2023-01-15T03:57:39;101239.25;;;16.51;24.50
37710;BME280;60223;34.854;-92.408;2023-01-15T03:59:59;101234.61;;;16.67;24.32
37710;BME280;60223;34.854;-92.408;2023-01-15T04:02:24;101235.28;;;16.45;24.52
37710;BME280;60223;34.854;-92.408;2023-01-15T04:04:50;101230.55;;;16.48;24.50
37710;BME280;60223;34.854;-92.408;2023-01-15T04:07:13;101230.07;;;16.56;24.43
37710;BME280;60223;34.854;-92.408;2023-01-15T04:09:40;101228.45;;;16.72;24.50
37710;BME280;60223;34.854;-92.408;2023-01-15T04:12:04;101225.97;;;16.58;24.41
37710;BME280;60223;34.854;-92.408;2023-01-15T04:14:29;101227.54;;;16.38;24.37
37710;BME280;60223;34.854;-92.408;2023-01-15T04:16:54;101225.94;;;16.34;24.37
37710;BME280;60223;34.854;-92.408;2023-01-15T04:19:17;101223.27;;;16.67;24.30
37710;BME280;60223;34.854;-92.408;2023-01-15T04:21:44;101217.23;;;16.06;24.58
37710;BME280;60223;34.854;-92.408;2023-01-15T04:24:09;101208.89;;;16.72;24.45
37710;BME280;60223;34.854;-92.408;2023-01-15T04:26:34;101214.95;;;16.57;24.15
37710;BME280;60223;34.854;-92.408;2023-01-15T04:28:57;101212.16;;;16.40;24.29
37710;BME280;60223;34.854;-92.408;2023-01-15T04:31:24;101213.74;;;16.62;24.30
37710;BME280;60223;34.854;-92.408;2023-01-15T04:33:49;101208.03;;;16.38;24.31
37710;BME280;60223;34.854;-92.408;2023-01-15T04:36:15;101208.67;;;16.53;24.39
37710;BME280;60223;34.854;-92.408;2023-01-15T04:38:40;101211.89;;;16.56;24.35
37710;BME280;60223;34.854;-92.408;2023-01-15T04:41:04;101206.81;;;16.35;24.51
37710;BME280;60223;34.854;-92.408;2023-01-15T04:43:30;101204.57;;;16.74;24.40
37710;BME280;60223;34.854;-92.408;2023-01-15T04:45:55;101208.78;;;16.58;24.10
37710;BME280;60223;34.854;-92.408;2023-01-15T04:48:20;101211.16;;;16.75;24.15
37710;BME280;60223;34.854;-92.408;2023-01-15T04:50:43;101203.68;;;16.88;24.22
37710;BME280;60223;34.854;-92.408;2023-01-15T04:53:14;101194.54;;;16.42;24.42
37710;BME280;60223;34.854;-92.408;2023-01-15T04:55:35;101196.24;;;16.71;24.18
37710;BME280;60223;34.854;-92.408;2023-01-15T04:58:00;101188.99;;;16.10;24.48
37710;BME280;60223;34.854;-92.408;2023-01-15T05:00:25;101183.65;;;16.38;24.42
37710;BME280;60223;34.854;-92.408;2023-01-15T05:02:48;101182.49;;;16.40;24.42
37710;BME280;60223;34.854;-92.408;2023-01-15T05:05:15;101180.46;;;16.37;24.43
37710;BME280;60223;34.854;-92.408;2023-01-15T05:07:40;101174.81;;;16.41;24.58
37710;BME280;60223;34.854;-92.408;2023-01-15T05:10:06;101176.26;;;16.48;24.36
37710;BME280;60223;34.854;-92.408;2023-01-15T05:12:28;101170.50;;;16.80;24.25
37710;BME280;60223;34.854;-92.408;2023-01-15T05:14:54;101170.75;;;16.41;24.39
37710;BME280;60223;34.854;-92.408;2023-01-15T05:17:20;101170.41;;;16.55;24.26
37710;BME280;60223;34.854;-92.408;2023-01-15T05:19:45;101171.73;;;16.27;24.29
37710;BME280;60223;34.854;-92.408;2023-01-15T05:22:09;101170.79;;;16.71;24.13
37710;BME280;60223;34.854;-92.408;2023-01-15T05:24:36;101171.92;;;16.17;24.53
37710;BME280;60223;34.854;-92.408;2023-01-15T05:27:00;101176.95;;;16.40;24.37
37710;BME280;60223;34.854;-92.408;2023-01-15T05:29:25;101176.42;;;16.38;24.37
37710;BME280;60223;34.854;-92.408;2023-01-15T05:31:49;101178.15;;;16.48;24.29
37710;BME280;60223;34.854;-92.408;2023-01-15T05:34:16;101183.35;;;16.58;24.35
37710;BME280;60223;34.854;-92.408;2023-01-15T05:36:40;101191.35;;;16.78;24.22
37710;BME280;60223;34.854;-92.408;2023-01-15T05:39:05;101186.26;;;16.65;24.31
37710;BME280;60223;34.854;-92.408;2023-01-15T05:41:31;101188.61;;;16.30;24.23
37710;BME280;60223;34.854;-92.408;2023-01-15T05:43:58;101184.27;;;17.04;24.00
37710;BME280;60223;34.854;-92.408;2023-01-15T05:46:21;101176.45;;;16.32;24.41
37710;BME280;60223;34.854;-92.408;2023-01-15T05:48:46;101169.99;;;16.43;24.48
37710;BME280;60223;34.854;-92.408;2023-01-15T05:51:11;101168.61;;;16.56;24.15
37710;BME280;60223;34.854;-92.408;2023-01-15T05:53:36;101161.33;;;16.55;24.36
37710;BME280;60223;34.854;-92.408;2023-01-15T05:56:04;101158.93;;;16.36;24.29
37710;BME280;60223;34.854;-92.408;2023-01-15T05:58:26;101158.82;;;16.39;24.29
37710;BME280;60223;34.854;-92.408;2023-01-15T06:00:51;101161.36;;;15.92;24.47
37710;BME280;60223;34.854;-92.408;2023-01-15T06:03:16;101164.05;;;16.52;24.16
37710;BME280;60223;34.854;-92.408;2023-01-15T06:05:41;101163.75;;;16.55;24.36
37710;BME280;60223;34.854;-92.408;2023-01-15T06:08:05;101163.30;;;16.31;24.30
37710;BME280;60223;34.854;-92.408;2023-01-15T06:10:32;101169.04;;;16.41;24.25
37710;BME280;60223;34.854;-92.408;2023-01-15T06:12:55;101172.23;;;16.45;24.39
37710;BME280;60223;34.854;-92.408;2023-01-15T06:15:21;101178.79;;;16.27;24.12
37710;BME280;60223;34.854;-92.408;2023-01-15T06:17:48;101179.24;;;16.16;24.45
37710;BME280;60223;34.854;-92.408;2023-01-15T06:20:11;101178.23;;;16.67;24.01
37710;BME280;60223;34.854;-92.408;2023-01-15T06:22:38;101176.17;;;16.36;24.27
37710;BME280;60223;34.854;-92.408;2023-01-15T06:24:59;101172.45;;;16.21;24.34
37710;BME280;60223;34.854;-92.408;2023-01-15T06:27:26;101168.61;;;16.59;24.22
37710;BME280;60223;34.854;-92.408;2023-01-15T06:29:51;101170.99;;;16.50;24.09
37710;BME280;60223;34.854;-92.408;2023-01-15T06:32:17;101176.13;;;16.83;24.03
37710;BME280;60223;34.854;-92.408;2023-01-15T06:34:41;101173.26;;;16.19;24.35
37710;BME280;60223;34.854;-92.408;2023-01-15T06:37:04;101181.79;;;16.63;24.01
37710;BME280;60223;34.854;-92.408;2023-01-15T06:39:32;101184.90;;;16.30;24.21
37710;BME280;60223;34.854;-92.408;2023-01-15T06:41:57;101190.45;;;16.00;24.51
37710;BME280;60223;34.854;-92.408;2023-01-15T06:44:22;101186.71;;;16.29;24.26
37710;BME280;60223;34.854;-92.408;2023-01-15T06:46:47;101187.42;;;15.95;24.49
37710;BME280;60223;34.854;-92.408;2023-01-15T06:49:12;101184.19;;;16.12;24.59
37710;BME280;60223;34.854;-92.408;2023-01-15T06:51:37;101171.56;;;16.28;24.41
37710;BME280;60223;34.854;-92.408;2023-01-15T06:54:03;101165.85;;;16.45;24.30
37710;BME280;60223;34.854;-92.408;2023-01-15T06:56:25;101162.13;;;16.28;24.20
37710;BME280;60223;34.854;-92.408;2023-01-15T06:58:50;101156.14;;;16.27;24.43
37710;BME280;60223;34.854;-92.408;2023-01-15T07:01:18;101149.80;;;16.29;24.37
37710;BME280;60223;34.854;-92.408;2023-01-15T07:03:42;101144.58;;;16.24;24.40
37710;BME280;60223;34.854;-92.408;2023-01-15T07:06:09;101141.52;;;16.35;24.12
37710;BME280;60223;34.854;-92.408;2023-01-15T07:08:32;101133.97;;;16.07;24.50
37710;BME280;60223;34.854;-92.408;2023-01-15T07:11:01;101134.39;;;16.19;24.26
37710;BME280;60223;34.854;-92.408;2023-01-15T07:13:23;101133.46;;;16.27;24.17
37710;BME280;60223;34.854;-92.408;2023-01-15T07:15:48;101131.60;;;16.65;24.09
37710;BME280;60223;34.854;-92.408;2023-01-15T07:18:11;101132.17;;;16.85;23.88
37710;BME280;60223;34.854;-92.408;2023-01-15T07:20:46;101126.27;;;16.58;24.11
37710;BME280;60223;34.854;-92.408;2023-01-15T07:23:03;101123.75;;;16.11;24.28
37710;BME280;60223;34.854;-92.408;2023-01-15T07:25:27;101126.16;;;16.26;24.35
37710;BME280;60223;34.854;-92.408;2023-01-15T07:27:53;101123.88;;;16.43;24.22
37710;BME280;60223;34.854;-92.408;2023-01-15T07:30:18;101126.56;;;16.47;24.14
37710;BME280;60223;34.854;-92.408;2023-01-15T07:32:42;101132.91;;;16.45;24.16
37710;BME280;60223;34.854;-92.408;2023-01-15T07:35:08;101133.90;;;16.03;24.33
37710;BME280;60223;34.854;-92.408;2023-01-15T07:37:33;101138.39;;;16.47;24.18
37710;BME280;60223;34.854;-92.408;2023-01-15T07:39:58;101134.77;;;16.52;24.11
37710;BME280;60223;34.854;-92.408;2023-01-15T07:42:23;101137.06;;;16.26;24.10
37710;BME280;60223;34.854;-92.408;2023-01-15T07:44:48;101142.90;;;16.20;24.16
37710;BME280;60223;34.854;-92.408;2023-01-15T07:47:19;101141.95;;;16.49;24.13
37710;BME280;60223;34.854;-92.408;2023-01-15T07:49:39;101140.86;;;16.13;24.18
37710;BME280;60223;34.854;-92.408;2023-01-15T07:52:02;101146.10;;;16.52;24.07
37710;BME280;60223;34.854;-92.408;2023-01-15T08:11:42;101148.61;;;16.21;24.28
37710;BME280;60223;34.854;-92.408;2023-01-15T08:13:49;101146.40;;;16.40;24.14
37710;BME280;60223;34.854;-92.408;2023-01-15T08:16:22;101144.08;;;16.49;24.04
37710;BME280;60223;34.854;-92.408;2023-01-15T08:18:38;101139.40;;;16.17;24.32
37710;BME280;60223;34.854;-92.408;2023-01-15T08:21:05;101138.61;;;16.14;24.12
37710;BME280;60223;34.854;-92.408;2023-01-15T08:23:29;101136.45;;;16.48;24.01
37710;BME280;60223;34.854;-92.408;2023-01-15T08:25:57;101133.45;;;16.70;23.86
37710;BME280;60223;34.854;-92.408;2023-01-15T08:28:18;101125.98;;;16.03;24.36
37710;BME280;60223;34.854;-92.408;2023-01-15T08:30:45;101124.53;;;16.03;24.39
37710;BME280;60223;34.854;-92.408;2023-01-15T08:33:09;101118.32;;;16.15;24.30
37710;BME280;60223;34.854;-92.408;2023-01-15T08:35:35;101117.41;;;16.08;24.31
37710;BME280;60223;34.854;-92.408;2023-01-15T08:38:04;101113.89;;;16.43;24.03
37710;BME280;60223;34.854;-92.408;2023-01-15T08:40:25;101106.06;;;15.96;24.21
37710;BME280;60223;34.854;-92.408;2023-01-15T08:42:47;101102.07;;;15.86;24.28
37710;BME280;60223;34.854;-92.408;2023-01-15T08:45:16;101098.67;;;16.20;24.20
37710;BME280;60223;34.854;-92.408;2023-01-15T08:47:40;101097.75;;;16.11;24.26
37710;BME280;60223;34.854;-92.408;2023-01-15T08:50:06;101095.90;;;16.05;24.30
37710;BME280;60223;34.854;-92.408;2023-01-15T08:52:29;101094.85;;;15.90;24.20
37710;BME280;60223;34.854;-92.408;2023-01-15T08:54:52;101089.38;;;16.51;23.93
37710;BME280;60223;34.854;-92.408;2023-01-15T08:57:20;101085.33;;;16.19;24.13
37710;BME280;60223;34.854;-92.408;2023-01-15T08:59:46;101084.82;;;16.09;24.23
37710;BME280;60223;34.854;-92.408;2023-01-15T09:02:11;101085.18;;;15.84;24.22
37710;BME280;60223;34.854;-92.408;2023-01-15T09:04:36;101085.92;;;16.11;24.20
37710;BME280;60223;34.854;-92.408;2023-01-15T09:06:59;101082.74;;;16.11;24.22
37710;BME280;60223;34.854;-92.408;2023-01-15T09:09:26;101083.71;;;15.98;24.12
37710;BME280;60223;34.854;-92.408;2023-01-15T09:11:51;101082.86;;;16.11;24.18
37710;BME280;60223;34.854;-92.408;2023-01-15T09:14:16;101090.09;;;15.94;24.33
37710;BME280;60223;34.854;-92.408;2023-01-15T09:16:40;101095.56;;;16.18;24.12
37710;BME280;60223;34.854;-92.408;2023-01-15T09:19:06;101093.59;;;15.75;24.46
37710;BME280;60223;34.854;-92.408;2023-01-15T09:21:31;101091.03;;;15.92;24.12
37710;BME280;60223;34.854;-92.408;2023-01-15T09:23:56;101086.23;;;15.55;24.44
37710;BME280;60223;34.854;-92.408;2023-01-15T09:26:29;101095.66;;;15.86;24.20
37710;BME280;60223;34.854;-92.408;2023-01-15T09:28:46;101103.44;;;15.93;24.31
37710;BME280;60223;34.854;-92.408;2023-01-15T09:31:11;101107.07;;;15.77;24.42
37710;BME280;60223;34.854;-92.408;2023-01-15T09:33:36;101119.28;;;16.08;24.16
37710;BME280;60223;34.854;-92.408;2023-01-15T09:36:00;101121.76;;;16.09;24.13
37710;BME280;60223;34.854;-92.408;2023-01-15T09:38:26;101116.73;;;15.88;24.11
37710;BME280;60223;34.854;-92.408;2023-01-15T09:40:52;101114.60;;;15.65;24.49
37710;BME280;60223;34.854;-92.408;2023-01-15T09:43:25;101116.93;;;15.82;24.33
37710;BME280;60223;34.854;-92.408;2023-01-15T09:45:44;101118.90;;;15.93;24.23
37710;BME280;60223;34.854;-92.408;2023-01-15T09:48:18;101124.07;;;16.28;23.96
37710;BME280;60223;34.854;-92.408;2023-01-15T09:50:41;101127.28;;;15.91;24.24
37710;BME280;60223;34.854;-92.408;2023-01-15T09:53:09;101120.99;;;15.91;24.25
37710;BME280;60223;34.854;-92.408;2023-01-15T09:55:24;101113.35;;;15.84;24.25
37710;BME280;60223;34.854;-92.408;2023-01-15T09:57:48;101114.93;;;16.09;23.91
37710;BME280;60223;34.854;-92.408;2023-01-15T10:00:19;101109.07;;;15.83;24.30
37710;BME280;60223;34.854;-92.408;2023-01-15T10:02:42;101106.81;;;16.07;24.10
37710;BME280;60223;34.854;-92.408;2023-01-15T10:05:08;101100.59;;;16.17;23.99
37710;BME280;60223;34.854;-92.408;2023-01-15T10:07:29;101102.83;;;16.30;23.89
37710;BME280;60223;34.854;-92.408;2023-01-15T10:09:58;101105.16;;;16.20;23.97
37710;BME280;60223;34.854;-92.408;2023-01-15T10:12:19;101096.00;;;16.16;23.98
37710;BME280;60223;34.854;-92.408;2023-01-15T10:14:49;101097.63;;;15.96;24.10
37710;BME280;60223;34.854;-92.408;2023-01-15T10:17:16;101101.35;;;15.96;24.14
37710;BME280;60223;34.854;-92.408;2023-01-15T10:19:30;101102.83;;;15.61;24.23
37710;BME280;60223;34.854;-92.408;2023-01-15T10:22:03;101109.30;;;16.04;24.09
37710;BME280;60223;34.854;-92.408;2023-01-15T10:24:27;101112.92;;;15.78;24.24
37710;BME280;60223;34.854;-92.408;2023-01-15T10:26:52;101123.79;;;16.14;23.97
37710;BME280;60223;34.854;-92.408;2023-01-15T10:29:16;101128.50;;;15.73;24.30
37710;BME280;60223;34.854;-92.408;2023-01-15T10:31:48;101122.44;;;15.87;24.18
37710;BME280;60223;34.854;-92.408;2023-01-15T10:36:32;101127.37;;;15.95;24.12
37710;BME280;60223;34.854;-92.408;2023-01-15T10:38:57;101140.26;;;15.71;24.26
37710;BME280;60223;34.854;-92.408;2023-01-15T10:41:30;101141.83;;;15.86;24.15
37710;BME280;60223;34.854;-92.408;2023-01-15T10:43:48;101139.56;;;16.39;23.90
37710;BME280;60223;34.854;-92.408;2023-01-15T10:46:15;101137.58;;;15.94;24.03
37710;BME280;60223;34.854;-92.408;2023-01-15T10:48:33;101143.52;;;15.78;24.22
37710;BME280;60223;34.854;-92.408;2023-01-15T10:51:00;101142.84;;;15.82;24.36
37710;BME280;60223;34.854;-92.408;2023-01-15T10:53:28;101137.45;;;15.92;24.08
37710;BME280;60223;34.854;-92.408;2023-01-15T10:55:52;101142.57;;;15.64;24.30
37710;BME280;60223;34.854;-92.408;2023-01-15T10:58:19;101131.88;;;16.31;23.76
37710;BME280;60223;34.854;-92.408;2023-01-15T11:00:38;101135.43;;;15.60;24.28
37710;BME280;60223;34.854;-92.408;2023-01-15T11:03:07;101123.64;;;15.99;24.17
37710;BME280;60223;34.854;-92.408;2023-01-15T11:05:29;101115.28;;;15.86;24.10
37710;BME280;60223;34.854;-92.408;2023-01-15T11:07:54;101105.99;;;15.75;23.99
37710;BME280;60223;34.854;-92.408;2023-01-15T11:10:21;101100.54;;;15.53;24.33
37710;BME280;60223;34.854;-92.408;2023-01-15T11:12:49;101096.14;;;15.47;24.18
37710;BME280;60223;34.854;-92.408;2023-01-15T11:15:13;101095.01;;;15.64;24.21
37710;BME280;60223;34.854;-92.408;2023-01-15T11:17:35;101091.49;;;16.32;24.07
37710;BME280;60223;34.854;-92.408;2023-01-15T11:19:59;101079.93;;;15.67;24.19
37710;BME280;60223;34.854;-92.408;2023-01-15T11:22:24;101070.23;;;15.68;24.18
37710;BME280;60223;34.854;-92.408;2023-01-15T11:24:49;101061.92;;;15.56;24.24
37710;BME280;60223;34.854;-92.408;2023-01-15T11:27:18;101060.03;;;16.01;24.07
37710;BME280;60223;34.854;-92.408;2023-01-15T11:29:38;101066.27;;;15.77;24.07
37710;BME280;60223;34.854;-92.408;2023-01-15T11:34:28;101071.20;;;15.61;24.19
37710;BME280;60223;34.854;-92.408;2023-01-15T11:37:00;101078.34;;;15.95;24.10
37710;BME280;60223;34.854;-92.408;2023-01-15T11:39:27;101079.15;;;15.77;24.03
37710;BME280;60223;34.854;-92.408;2023-01-15T11:41:45;101076.61;;;15.99;24.05
37710;BME280;60223;34.854;-92.408;2023-01-15T11:44:11;101076.86;;;16.01;24.05
37710;BME280;60223;34.854;-92.408;2023-01-15T11:46:35;101078.61;;;15.51;24.25
37710;BME280;60223;34.854;-92.408;2023-01-15T11:48:59;101082.87;;;15.76;24.22
37710;BME280;60223;34.854;-92.408;2023-01-15T11:51:24;101084.10;;;15.87;23.91
37710;BME280;60223;34.854;-92.408;2023-01-15T11:53:50;101079.40;;;15.95;23.85
37710;BME280;60223;34.854;-92.408;2023-01-15T11:56:18;101070.78;;;15.63;24.12
37710;BME280;60223;34.854;-92.408;2023-01-15T11:58:44;101064.70;;;15.75;24.03
37710;BME280;60223;34.854;-92.408;2023-01-15T12:01:05;101064.77;;;15.68;24.07
37710;BME280;60223;34.854;-92.408;2023-01-15T12:03:33;101065.37;;;15.50;24.19
37710;BME280;60223;34.854;-92.408;2023-01-15T12:06:00;101062.67;;;15.70;24.03
37710;BME280;60223;34.854;-92.408;2023-01-15T12:10:51;101050.05;;;16.01;23.97
37710;BME280;60223;34.854;-92.408;2023-01-15T12:13:18;101043.93;;;15.60;24.10
37710;BME280;60223;34.854;-92.408;2023-01-15T12:15:41;101052.19;;;15.38;24.24
37710;BME280;60223;34.854;-92.408;2023-01-15T12:18:20;101056.18;;;15.90;24.02
37710;BME280;60223;34.854;-92.408;2023-01-15T12:20:30;101062.55;;;15.68;24.00
37710;BME280;60223;34.854;-92.408;2023-01-15T12:23:01;101056.75;;;15.81;23.87
37710;BME280;60223;34.854;-92.408;2023-01-15T12:25:33;101058.75;;;15.66;24.19
37710;BME280;60223;34.854;-92.408;2023-01-15T12:27:50;101050.56;;;15.75;24.12
37710;BME280;60223;34.854;-92.408;2023-01-15T12:30:15;101045.20;;;16.12;24.01
37710;BME280;60223;34.854;-92.408;2023-01-15T12:32:35;101056.08;;;15.39;24.19
37710;BME280;60223;34.854;-92.408;2023-01-15T12:35:00;101050.75;;;15.30;24.26
37710;BME280;60223;34.854;-92.408;2023-01-15T12:37:24;101050.37;;;15.63;23.99
37710;BME280;60223;34.854;-92.408;2023-01-15T12:39:50;101050.70;;;15.49;24.08
37710;BME280;60223;34.854;-92.408;2023-01-15T12:42:12;101051.14;;;15.39;24.15
37710;BME280;60223;34.854;-92.408;2023-01-15T12:44:39;101051.84;;;15.64;24.15
37710;BME280;60223;34.854;-92.408;2023-01-15T12:47:02;101047.15;;;15.48;24.08
37710;BME280;60223;34.854;-92.408;2023-01-15T12:49:34;101045.85;;;15.35;24.15
37710;BME280;60223;34.854;-92.408;2023-01-15T12:51:54;101041.53;;;15.21;24.31
37710;BME280;60223;34.854;-92.408;2023-01-15T12:54:18;101039.07;;;15.24;24.26
37710;BME280;60223;34.854;-92.408;2023-01-15T12:56:52;101031.32;;;15.16;24.32
37710;BME280;60223;34.854;-92.408;2023-01-15T12:59:10;101033.52;;;15.69;24.05
37710;BME280;60223;34.854;-92.408;2023-01-15T13:01:37;101032.93;;;15.46;24.05
37710;BME280;60223;34.854;-92.408;2023-01-15T13:04:04;101027.13;;;15.57;23.95
37710;BME280;60223;34.854;-92.408;2023-01-15T13:06:23;101020.42;;;15.50;24.00